sensor_id;sensor_type;location;lat;lon;timestamp;temperature;humidity
1468;DHT22;727;48.892;9.544;2022-08-21T00:00:49;13.70;99.90
1468;DHT22;727;48.892;9.544;2022-08-21T00:03:15;13.80;99.90
1468;DHT22;727;48.892;9.544;2022-08-21T00:05:45;13.70;99.90
1468;DHT22;727;48.892;9.544;2022-08-21T00:08:12;13.70;99.90
1468;DHT22;727;48.892;9.544;2022-08-21T00:10:39;13.80;99.90
1468;DHT22;727;48.892;9.544;2022-08-21T00:13:08;13.70;99.90
1468;DHT22;727;48.892;9.544;2022-08-21T00:15:36;13.70;99.90
1468;DHT22;727;48.892;9.544;2022-08-21T00:18:04;13.70;99.90
1468;DHT22;727;48.892;9.544;2022-08-21T00:20:32;13.70;99.90
1468;DHT22;727;48.892;9.544;2022-08-21T00:22:59;13.60;99.90
1468;DHT22;727;48.892;9.544;2022-08-21T00:25:26;13.60;99.90
1468;DHT22;727;48.892;9.544;2022-08-21T00:27:54;13.70;99.90
1468;DHT22;727;48.892;9.544;2022-08-21T00:30:24;13.70;99.90
1468;DHT22;727;48.892;9.544;2022-08-21T00:32:53;13.70;99.90
1468;DHT22;727;48.892;9.544;2022-08-21T00:35:23;13.60;99.90
1468;DHT22;727;48.892;9.544;2022-08-21T00:37:50;13.60;99.90
1468;DHT22;727;48.892;9.544;2022-08-21T00:40:21;13.60;99.90
1468;DHT22;727;48.892;9.544;2022-08-21T00:42:48;13.60;99.90
1468;DHT22;727;48.892;9.544;2022-08-21T00:45:16;13.50;99.90
1468;DHT22;727;48.892;9.544;2022-08-21T00:47:44;13.60;99.90
1468;DHT22;727;48.892;9.544;2022-08-21T00:50:12;13.60;99.90
1468;DHT22;727;48.892;9.544;2022-08-21T00:52:41;13.50;99.90
1468;DHT22;727;48.892;9.544;2022-08-21T00:55:10;13.50;99.90
1468;DHT22;727;48.892;9.544;2022-08-21T00:57:40;13.50;99.90
1468;DHT22;727;48.892;9.544;2022-08-21T01:00:13;13.50;99.90
1468;DHT22;727;48.892;9.544;2022-08-21T01:02:41;13.50;99.90
1468;DHT22;727;48.892;9.544;2022-08-21T01:05:10;13.50;99.90
1468;DHT22;727;48.892;9.544;2022-08-21T01:07:37;13.50;99.90
1468;DHT22;727;48.892;9.544;2022-08-21T01:10:06;13.50;99.90
1468;DHT22;727;48.892;9.544;2022-08-21T01:12:33;13.40;99.90
1468;DHT22;727;48.892;9.544;2022-08-21T01:15:02;13.40;99.90
1468;DHT22;727;48.892;9.544;2022-08-21T01:17:30;13.40;99.90
1468;DHT22;727;48.892;9.544;2022-08-21T01:19:57;13.30;99.90
1468;DHT22;727;48.892;9.544;2022-08-21T01:22:25;13.30;99.90
1468;DHT22;727;48.892;9.544;2022-08-21T01:24:52;13.40;99.90
1468;DHT22;727;48.892;9.544;2022-08-21T01:27:19;13.30;99.90
1468;DHT22;727;48.892;9.544;2022-08-21T01:29:52;13.40;99.90
1468;DHT22;727;48.892;9.544;2022-08-21T01:32:21;13.30;99.90
1468;DHT22;727;48.892;9.544;2022-08-21T01:34:49;13.30;99.90
1468;DHT22;727;48.892;9.544;2022-08-21T01:37:16;13.30;99.90
1468;DHT22;727;48.892;9.544;2022-08-21T01:39:45;13.30;99.90
1468;DHT22;727;48.892;9.544;2022-08-21T01:42:12;13.20;99.90
1468;DHT22;727;48.892;9.544;2022-08-21T01:44:39;13.20;99.90
1468;DHT22;727;48.892;9.544;2022-08-21T01:47:07;13.20;99.90
1468;DHT22;727;48.892;9.544;2022-08-21T01:49:34;13.10;99.90
1468;DHT22;727;48.892;9.544;2022-08-21T01:52:02;13.10;99.90
1468;DHT22;727;48.892;9.544;2022-08-21T01:54:29;13.10;99.90
1468;DHT22;727;48.892;9.544;2022-08-21T01:56:59;13.10;99.90
1468;DHT22;727;48.892;9.544;2022-08-21T01:59:27;13.00;99.90
1468;DHT22;727;48.892;9.544;2022-08-21T02:01:54;13.00;99.90
1468;DHT22;727;48.892;9.544;2022-08-21T02:04:21;13.00;99.90
1468;DHT22;727;48.892;9.544;2022-08-21T02:06:48;13.00;99.90
1468;DHT22;727;48.892;9.544;2022-08-21T02:09:16;13.00;99.90
1468;DHT22;727;48.892;9.544;2022-08-21T02:11:43;13.00;99.90
1468;DHT22;727;48.892;9.544;2022-08-21T02:14:12;13.00;99.90
1468;DHT22;727;48.892;9.544;2022-08-21T02:16:41;13.00;99.90
1468;DHT22;727;48.892;9.544;2022-08-21T02:19:08;13.00;99.90
1468;DHT22;727;48.892;9.544;2022-08-21T02:21:35;12.90;99.90
1468;DHT22;727;48.892;9.544;2022-08-21T02:24:02;12.90;99.90
1468;DHT22;727;48.892;9.544;2022-08-21T02:26:29;13.00;99.90
1468;DHT22;727;48.892;9.544;2022-08-21T02:28:56;12.90;99.90
1468;DHT22;727;48.892;9.544;2022-08-21T02:31:24;12.90;99.90
1468;DHT22;727;48.892;9.544;2022-08-21T02:33:51;12.80;99.90
1468;DHT22;727;48.892;9.544;2022-08-21T02:36:18;12.80;99.90
1468;DHT22;727;48.892;9.544;2022-08-21T02:38:45;12.80;99.90
1468;DHT22;727;48.892;9.544;2022-08-21T02:41:14;12.80;99.90
1468;DHT22;727;48.892;9.544;2022-08-21T02:43:41;12.80;99.90
1468;DHT22;727;48.892;9.544;2022-08-21T02:46:10;12.80;99.90
1468;DHT22;727;48.892;9.544;2022-08-21T02:48:39;12.80;99.90
1468;DHT22;727;48.892;9.544;2022-08-21T02:51:08;12.70;99.90
1468;DHT22;727;48.892;9.544;2022-08-21T02:53:36;12.70;99.90
1468;DHT22;727;48.892;9.544;2022-08-21T02:56:06;12.70;99.90
1468;DHT22;727;48.892;9.544;2022-08-21T02:58:36;12.70;99.90
1468;DHT22;727;48.892;9.544;2022-08-21T03:01:04;12.70;99.90
1468;DHT22;727;48.892;9.544;2022-08-21T03:03:36;12.70;99.90
1468;DHT22;727;48.892;9.544;2022-08-21T03:06:05;12.70;99.90
1468;DHT22;727;48.892;9.544;2022-08-21T03:08:33;12.70;99.90
1468;DHT22;727;48.892;9.544;2022-08-21T03:11:00;12.60;99.90
1468;DHT22;727;48.892;9.544;2022-08-21T03:13:27;12.60;99.90
1468;DHT22;727;48.892;9.544;2022-08-21T03:15:55;12.60;99.90
1468;DHT22;727;48.892;9.544;2022-08-21T03:18:22;12.50;99.90
1468;DHT22;727;48.892;9.544;2022-08-21T03:20:48;12.50;99.90
1468;DHT22;727;48.892;9.544;2022-08-21T03:23:17;12.50;99.90
1468;DHT22;727;48.892;9.544;2022-08-21T03:25:45;12.40;99.90
1468;DHT22;727;48.892;9.544;2022-08-21T03:28:15;12.40;99.90
1468;DHT22;727;48.892;9.544;2022-08-21T03:30:43;12.40;99.90
1468;DHT22;727;48.892;9.544;2022-08-21T03:33:10;12.40;99.90
1468;DHT22;727;48.892;9.544;2022-08-21T03:35:37;12.40;99.90
1468;DHT22;727;48.892;9.544;2022-08-21T03:38:04;12.30;99.90
1468;DHT22;727;48.892;9.544;2022-08-21T03:40:32;12.30;99.90
1468;DHT22;727;48.892;9.544;2022-08-21T03:42:59;12.30;99.90
1468;DHT22;727;48.892;9.544;2022-08-21T03:45:25;12.30;99.90
1468;DHT22;727;48.892;9.544;2022-08-21T03:47:54;12.30;99.90
1468;DHT22;727;48.892;9.544;2022-08-21T03:50:22;12.30;99.90
1468;DHT22;727;48.892;9.544;2022-08-21T03:52:49;12.20;99.90
1468;DHT22;727;48.892;9.544;2022-08-21T03:55:16;12.20;99.90
1468;DHT22;727;48.892;9.544;2022-08-21T03:57:45;12.20;99.90
1468;DHT22;727;48.892;9.544;2022-08-21T04:00:13;12.20;99.90
1468;DHT22;727;48.892;9.544;2022-08-21T04:02:40;12.20;99.90
1468;DHT22;727;48.892;9.544;2022-08-21T04:05:08;12.20;99.90
1468;DHT22;727;48.892;9.544;2022-08-21T04:07:35;12.10;99.90
1468;DHT22;727;48.892;9.544;2022-08-21T04:10:03;12.10;99.90
1468;DHT22;727;48.892;9.544;2022-08-21T04:12:29;12.10;99.90
1468;DHT22;727;48.892;9.544;2022-08-21T04:14:58;12.10;99.90
1468;DHT22;727;48.892;9.544;2022-08-21T04:17:27;12.10;99.90
1468;DHT22;727;48.892;9.544;2022-08-21T04:19:53;12.00;99.90
1468;DHT22;727;48.892;9.544;2022-08-21T04:22:21;12.10;99.90
1468;DHT22;727;48.892;9.544;2022-08-21T04:24:48;12.10;99.90
1468;DHT22;727;48.892;9.544;2022-08-21T04:27:15;12.10;99.90
1468;DHT22;727;48.892;9.544;2022-08-21T04:29:41;12.10;99.90
1468;DHT22;727;48.892;9.544;2022-08-21T04:32:09;12.10;99.90
1468;DHT22;727;48.892;9.544;2022-08-21T04:34:36;12.10;99.90
1468;DHT22;727;48.892;9.544;2022-08-21T04:37:03;12.00;99.90
1468;DHT22;727;48.892;9.544;2022-08-21T04:39:30;12.00;99.90
1468;DHT22;727;48.892;9.544;2022-08-21T04:41:56;12.10;99.90
1468;DHT22;727;48.892;9.544;2022-08-21T04:44:23;12.00;99.90
1468;DHT22;727;48.892;9.544;2022-08-21T04:46:50;12.10;99.90
1468;DHT22;727;48.892;9.544;2022-08-21T04:49:18;12.20;99.90
1468;DHT22;727;48.892;9.544;2022-08-21T04:51:44;12.20;99.90
1468;DHT22;727;48.892;9.544;2022-08-21T04:54:15;12.40;99.90
1468;DHT22;727;48.892;9.544;2022-08-21T04:56:45;12.80;99.90
1468;DHT22;727;48.892;9.544;2022-08-21T04:59:15;13.60;99.90
1468;DHT22;727;48.892;9.544;2022-08-21T05:01:44;14.40;99.90
1468;DHT22;727;48.892;9.544;2022-08-21T05:04:14;15.40;99.90
1468;DHT22;727;48.892;9.544;2022-08-21T05:06:45;16.20;99.90
1468;DHT22;727;48.892;9.544;2022-08-21T05:09:15;17.10;99.90
1468;DHT22;727;48.892;9.544;2022-08-21T05:11:43;18.00;99.90
1468;DHT22;727;48.892;9.544;2022-08-21T05:14:10;18.10;99.90
1468;DHT22;727;48.892;9.544;2022-08-21T05:16:38;17.70;99.90
1468;DHT22;727;48.892;9.544;2022-08-21T05:19:06;18.10;99.90
1468;DHT22;727;48.892;9.544;2022-08-21T05:21:33;18.90;99.90
1468;DHT22;727;48.892;9.544;2022-08-21T05:24:01;19.40;99.90
1468;DHT22;727;48.892;9.544;2022-08-21T05:26:28;20.00;99.00
1468;DHT22;727;48.892;9.544;2022-08-21T05:28:55;20.40;96.90
1468;DHT22;727;48.892;9.544;2022-08-21T05:31:22;20.80;96.10
1468;DHT22;727;48.892;9.544;2022-08-21T05:33:49;21.10;94.40
1468;DHT22;727;48.892;9.544;2022-08-21T05:36:16;21.50;93.80
1468;DHT22;727;48.892;9.544;2022-08-21T05:38:43;22.30;92.10
1468;DHT22;727;48.892;9.544;2022-08-21T05:41:11;22.60;90.70
1468;DHT22;727;48.892;9.544;2022-08-21T05:43:38;22.80;89.80
1468;DHT22;727;48.892;9.544;2022-08-21T05:46:06;23.40;87.60
1468;DHT22;727;48.892;9.544;2022-08-21T05:48:34;23.90;85.30
1468;DHT22;727;48.892;9.544;2022-08-21T05:51:05;24.00;82.40
1468;DHT22;727;48.892;9.544;2022-08-21T05:53:32;24.60;81.90
1468;DHT22;727;48.892;9.544;2022-08-21T05:55:59;25.20;78.00
1468;DHT22;727;48.892;9.544;2022-08-21T05:58:31;25.50;76.20
1468;DHT22;727;48.892;9.544;2022-08-21T06:01:00;25.90;76.10
1468;DHT22;727;48.892;9.544;2022-08-21T06:03:31;26.30;72.70
1468;DHT22;727;48.892;9.544;2022-08-21T06:05:58;26.80;70.80
1468;DHT22;727;48.892;9.544;2022-08-21T06:08:25;26.90;70.10
1468;DHT22;727;48.892;9.544;2022-08-21T06:10:53;26.70;69.80
1468;DHT22;727;48.892;9.544;2022-08-21T06:13:21;26.90;69.20
1468;DHT22;727;48.892;9.544;2022-08-21T06:15:50;26.40;70.70
1468;DHT22;727;48.892;9.544;2022-08-21T06:18:17;26.40;71.00
1468;DHT22;727;48.892;9.544;2022-08-21T06:20:44;26.00;72.20
1468;DHT22;727;48.892;9.544;2022-08-21T06:23:10;25.70;72.10
1468;DHT22;727;48.892;9.544;2022-08-21T06:25:37;25.80;73.80
1468;DHT22;727;48.892;9.544;2022-08-21T06:28:05;25.70;74.50
1468;DHT22;727;48.892;9.544;2022-08-21T06:30:33;25.30;74.80
1468;DHT22;727;48.892;9.544;2022-08-21T06:33:01;24.60;77.10
1468;DHT22;727;48.892;9.544;2022-08-21T06:35:28;23.90;79.50
1468;DHT22;727;48.892;9.544;2022-08-21T06:37:55;23.40;82.30
1468;DHT22;727;48.892;9.544;2022-08-21T06:40:22;22.80;84.50
1468;DHT22;727;48.892;9.544;2022-08-21T06:42:49;22.10;88.00
1468;DHT22;727;48.892;9.544;2022-08-21T06:45:15;22.10;89.30
1468;DHT22;727;48.892;9.544;2022-08-21T06:47:42;21.60;91.10
1468;DHT22;727;48.892;9.544;2022-08-21T06:50:10;21.00;92.50
1468;DHT22;727;48.892;9.544;2022-08-21T06:52:38;20.90;94.30
1468;DHT22;727;48.892;9.544;2022-08-21T06:55:07;20.80;94.60
1468;DHT22;727;48.892;9.544;2022-08-21T06:57:34;20.70;95.30
1468;DHT22;727;48.892;9.544;2022-08-21T07:00:02;20.90;95.80
1468;DHT22;727;48.892;9.544;2022-08-21T07:02:29;20.90;95.90
1468;DHT22;727;48.892;9.544;2022-08-21T07:04:56;21.00;95.80
1468;DHT22;727;48.892;9.544;2022-08-21T07:07:25;21.20;95.70
1468;DHT22;727;48.892;9.544;2022-08-21T07:09:52;21.10;95.70
1468;DHT22;727;48.892;9.544;2022-08-21T07:12:19;21.20;95.90
1468;DHT22;727;48.892;9.544;2022-08-21T07:14:46;21.40;95.70
1468;DHT22;727;48.892;9.544;2022-08-21T07:17:12;21.60;94.20
1468;DHT22;727;48.892;9.544;2022-08-21T07:19:39;21.60;94.10
1468;DHT22;727;48.892;9.544;2022-08-21T07:22:06;21.70;93.70
1468;DHT22;727;48.892;9.544;2022-08-21T07:24:34;21.90;93.40
1468;DHT22;727;48.892;9.544;2022-08-21T07:27:01;21.90;93.10
1468;DHT22;727;48.892;9.544;2022-08-21T07:29:27;22.00;92.90
1468;DHT22;727;48.892;9.544;2022-08-21T07:31:54;22.10;93.00
1468;DHT22;727;48.892;9.544;2022-08-21T07:34:21;22.20;92.30
1468;DHT22;727;48.892;9.544;2022-08-21T07:36:47;22.30;91.90
1468;DHT22;727;48.892;9.544;2022-08-21T07:39:14;22.40;92.50
1468;DHT22;727;48.892;9.544;2022-08-21T07:41:42;22.40;92.80
1468;DHT22;727;48.892;9.544;2022-08-21T07:44:09;22.50;92.20
1468;DHT22;727;48.892;9.544;2022-08-21T07:46:35;22.60;92.20
1468;DHT22;727;48.892;9.544;2022-08-21T07:49:02;22.90;92.00
1468;DHT22;727;48.892;9.544;2022-08-21T07:51:29;23.20;90.00
1468;DHT22;727;48.892;9.544;2022-08-21T07:53:57;23.20;90.10
1468;DHT22;727;48.892;9.544;2022-08-21T07:56:24;23.40;89.50
1468;DHT22;727;48.892;9.544;2022-08-21T07:58:52;23.70;88.60
1468;DHT22;727;48.892;9.544;2022-08-21T08:01:19;23.50;89.60
1468;DHT22;727;48.892;9.544;2022-08-21T08:03:46;23.50;88.20
1468;DHT22;727;48.892;9.544;2022-08-21T08:06:13;23.70;88.60
1468;DHT22;727;48.892;9.544;2022-08-21T08:08:42;24.00;87.50
1468;DHT22;727;48.892;9.544;2022-08-21T08:11:10;24.20;87.00
1468;DHT22;727;48.892;9.544;2022-08-21T08:13:39;24.40;85.70
1468;DHT22;727;48.892;9.544;2022-08-21T08:16:07;24.60;85.00
1468;DHT22;727;48.892;9.544;2022-08-21T08:18:34;24.40;85.60
1468;DHT22;727;48.892;9.544;2022-08-21T08:21:01;24.60;85.50
1468;DHT22;727;48.892;9.544;2022-08-21T08:23:27;24.80;85.60
1468;DHT22;727;48.892;9.544;2022-08-21T08:25:55;25.10;84.10
1468;DHT22;727;48.892;9.544;2022-08-21T08:28:22;25.20;84.20
1468;DHT22;727;48.892;9.544;2022-08-21T08:30:49;25.20;83.90
1468;DHT22;727;48.892;9.544;2022-08-21T08:33:18;25.30;83.20
1468;DHT22;727;48.892;9.544;2022-08-21T08:35:46;25.70;81.40
1468;DHT22;727;48.892;9.544;2022-08-21T08:38:13;25.80;78.70
1468;DHT22;727;48.892;9.544;2022-08-21T08:40:47;25.90;79.00
1468;DHT22;727;48.892;9.544;2022-08-21T08:43:17;25.90;80.00
1468;DHT22;727;48.892;9.544;2022-08-21T08:45:48;26.00;77.60
1468;DHT22;727;48.892;9.544;2022-08-21T08:48:31;26.20;77.30
1468;DHT22;727;48.892;9.544;2022-08-21T08:51:02;26.30;78.90
1468;DHT22;727;48.892;9.544;2022-08-21T08:53:34;26.30;77.00
1468;DHT22;727;48.892;9.544;2022-08-21T08:56:07;26.50;76.80
1468;DHT22;727;48.892;9.544;2022-08-21T08:58:37;26.70;76.00
1468;DHT22;727;48.892;9.544;2022-08-21T09:01:11;26.90;74.00
1468;DHT22;727;48.892;9.544;2022-08-21T09:03:41;27.00;75.40
1468;DHT22;727;48.892;9.544;2022-08-21T09:06:18;27.10;73.30
1468;DHT22;727;48.892;9.544;2022-08-21T09:08:55;27.30;73.30
1468;DHT22;727;48.892;9.544;2022-08-21T09:11:29;27.50;72.90
1468;DHT22;727;48.892;9.544;2022-08-21T09:14:06;27.60;71.10
1468;DHT22;727;48.892;9.544;2022-08-21T09:16:40;27.60;70.60
1468;DHT22;727;48.892;9.544;2022-08-21T09:19:23;27.70;69.40
1468;DHT22;727;48.892;9.544;2022-08-21T09:22:02;28.00;69.20
1468;DHT22;727;48.892;9.544;2022-08-21T09:24:32;28.20;66.70
1468;DHT22;727;48.892;9.544;2022-08-21T09:27:03;28.30;65.60
1468;DHT22;727;48.892;9.544;2022-08-21T09:29:36;28.50;67.00
1468;DHT22;727;48.892;9.544;2022-08-21T09:32:09;28.40;65.50
1468;DHT22;727;48.892;9.544;2022-08-21T09:34:38;28.50;63.30
1468;DHT22;727;48.892;9.544;2022-08-21T09:37:04;28.70;60.80
1468;DHT22;727;48.892;9.544;2022-08-21T09:39:42;28.50;63.60
1468;DHT22;727;48.892;9.544;2022-08-21T09:42:10;28.70;62.70
1468;DHT22;727;48.892;9.544;2022-08-21T09:44:40;28.60;61.10
1468;DHT22;727;48.892;9.544;2022-08-21T09:47:10;28.70;60.20
1468;DHT22;727;48.892;9.544;2022-08-21T09:49:41;28.60;61.30
1468;DHT22;727;48.892;9.544;2022-08-21T09:52:16;28.60;61.60
1468;DHT22;727;48.892;9.544;2022-08-21T09:54:45;28.40;59.50
1468;DHT22;727;48.892;9.544;2022-08-21T09:57:14;28.20;61.40
1468;DHT22;727;48.892;9.544;2022-08-21T10:00:09;28.00;56.60
1468;DHT22;727;48.892;9.544;2022-08-21T10:02:37;28.10;55.80
1468;DHT22;727;48.892;9.544;2022-08-21T10:05:08;28.30;55.30
1468;DHT22;727;48.892;9.544;2022-08-21T10:07:38;28.40;54.50
1468;DHT22;727;48.892;9.544;2022-08-21T10:10:06;28.50;54.00
1468;DHT22;727;48.892;9.544;2022-08-21T10:12:42;28.80;53.70
1468;DHT22;727;48.892;9.544;2022-08-21T10:15:18;28.70;53.30
1468;DHT22;727;48.892;9.544;2022-08-21T10:17:52;28.80;54.20
1468;DHT22;727;48.892;9.544;2022-08-21T10:20:25;28.80;52.50
1468;DHT22;727;48.892;9.544;2022-08-21T10:23:04;28.50;53.00
1468;DHT22;727;48.892;9.544;2022-08-21T10:25:37;28.30;52.90
1468;DHT22;727;48.892;9.544;2022-08-21T10:28:13;28.10;53.10
1468;DHT22;727;48.892;9.544;2022-08-21T10:30:48;28.00;52.70
1468;DHT22;727;48.892;9.544;2022-08-21T10:33:23;28.00;52.50
1468;DHT22;727;48.892;9.544;2022-08-21T10:36:00;28.20;52.40
1468;DHT22;727;48.892;9.544;2022-08-21T10:41:32;28.80;51.40
1468;DHT22;727;48.892;9.544;2022-08-21T10:44:17;29.30;50.60
1468;DHT22;727;48.892;9.544;2022-08-21T10:46:54;29.40;48.90
1468;DHT22;727;48.892;9.544;2022-08-21T10:49:30;28.80;49.50
1468;DHT22;727;48.892;9.544;2022-08-21T10:52:25;28.40;50.80
1468;DHT22;727;48.892;9.544;2022-08-21T10:54:59;28.60;52.30
1468;DHT22;727;48.892;9.544;2022-08-21T10:57:39;28.60;50.90
1468;DHT22;727;48.892;9.544;2022-08-21T11:00:10;28.60;51.10
1468;DHT22;727;48.892;9.544;2022-08-21T11:02:41;28.90;47.90
1468;DHT22;727;48.892;9.544;2022-08-21T11:05:12;29.10;48.50
1468;DHT22;727;48.892;9.544;2022-08-21T11:07:49;29.30;48.50
1468;DHT22;727;48.892;9.544;2022-08-21T11:10:22;29.60;49.40
1468;DHT22;727;48.892;9.544;2022-08-21T11:12:53;30.00;48.40
1468;DHT22;727;48.892;9.544;2022-08-21T11:15:29;30.00;47.60
1468;DHT22;727;48.892;9.544;2022-08-21T11:18:07;30.10;47.90
1468;DHT22;727;48.892;9.544;2022-08-21T11:20:40;30.20;46.30
1468;DHT22;727;48.892;9.544;2022-08-21T11:23:14;30.00;46.70
1468;DHT22;727;48.892;9.544;2022-08-21T11:25:47;30.00;47.20
1468;DHT22;727;48.892;9.544;2022-08-21T11:28:19;30.30;47.10
1468;DHT22;727;48.892;9.544;2022-08-21T11:31:02;30.50;46.20
1468;DHT22;727;48.892;9.544;2022-08-21T11:33:46;30.70;43.50
1468;DHT22;727;48.892;9.544;2022-08-21T11:36:21;30.60;43.90
1468;DHT22;727;48.892;9.544;2022-08-21T11:38:57;30.90;44.70
1468;DHT22;727;48.892;9.544;2022-08-21T11:41:31;31.20;44.10
1468;DHT22;727;48.892;9.544;2022-08-21T11:44:08;31.20;43.20
1468;DHT22;727;48.892;9.544;2022-08-21T11:46:41;30.90;43.40
1468;DHT22;727;48.892;9.544;2022-08-21T11:49:25;30.90;43.30
1468;DHT22;727;48.892;9.544;2022-08-21T11:52:07;30.90;42.40
1468;DHT22;727;48.892;9.544;2022-08-21T11:54:42;30.90;42.50
1468;DHT22;727;48.892;9.544;2022-08-21T11:57:16;30.80;42.90
1468;DHT22;727;48.892;9.544;2022-08-21T11:59:49;31.00;42.60
1468;DHT22;727;48.892;9.544;2022-08-21T12:02:21;30.90;42.40
1468;DHT22;727;48.892;9.544;2022-08-21T12:04:51;31.00;42.90
1468;DHT22;727;48.892;9.544;2022-08-21T12:07:31;31.00;43.00
1468;DHT22;727;48.892;9.544;2022-08-21T12:10:00;31.00;43.30
1468;DHT22;727;48.892;9.544;2022-08-21T12:12:30;31.40;43.10
1468;DHT22;727;48.892;9.544;2022-08-21T12:15:24;31.70;42.60
1468;DHT22;727;48.892;9.544;2022-08-21T12:17:55;32.10;40.60
1468;DHT22;727;48.892;9.544;2022-08-21T12:20:32;31.70;41.00
1468;DHT22;727;48.892;9.544;2022-08-21T12:23:04;31.50;41.20
1468;DHT22;727;48.892;9.544;2022-08-21T12:25:39;31.40;40.00
1468;DHT22;727;48.892;9.544;2022-08-21T12:28:08;31.30;40.90
1468;DHT22;727;48.892;9.544;2022-08-21T12:30:38;31.40;41.30
1468;DHT22;727;48.892;9.544;2022-08-21T12:33:18;31.10;41.30
1468;DHT22;727;48.892;9.544;2022-08-21T12:35:47;30.80;42.40
1468;DHT22;727;48.892;9.544;2022-08-21T12:38:17;30.80;42.30
1468;DHT22;727;48.892;9.544;2022-08-21T12:40:50;30.90;42.50
1468;DHT22;727;48.892;9.544;2022-08-21T12:43:21;31.20;42.40
1468;DHT22;727;48.892;9.544;2022-08-21T12:45:50;31.60;42.40
1468;DHT22;727;48.892;9.544;2022-08-21T12:48:21;31.60;41.70
1468;DHT22;727;48.892;9.544;2022-08-21T12:50:51;31.40;41.20
1468;DHT22;727;48.892;9.544;2022-08-21T12:53:25;31.30;41.40
1468;DHT22;727;48.892;9.544;2022-08-21T12:55:55;31.40;41.30
1468;DHT22;727;48.892;9.544;2022-08-21T12:58:27;31.40;41.10
1468;DHT22;727;48.892;9.544;2022-08-21T13:00:56;31.40;41.20
1468;DHT22;727;48.892;9.544;2022-08-21T13:03:23;31.80;40.60
1468;DHT22;727;48.892;9.544;2022-08-21T13:05:51;32.50;40.00
1468;DHT22;727;48.892;9.544;2022-08-21T13:08:20;33.40;38.90
1468;DHT22;727;48.892;9.544;2022-08-21T13:10:58;33.50;37.90
1468;DHT22;727;48.892;9.544;2022-08-21T13:13:26;32.90;38.30
1468;DHT22;727;48.892;9.544;2022-08-21T13:15:57;32.50;39.00
1468;DHT22;727;48.892;9.544;2022-08-21T13:18:26;32.30;39.70
1468;DHT22;727;48.892;9.544;2022-08-21T13:21:03;32.20;39.00
1468;DHT22;727;48.892;9.544;2022-08-21T13:23:32;32.10;39.80
1468;DHT22;727;48.892;9.544;2022-08-21T13:26:00;31.60;40.20
1468;DHT22;727;48.892;9.544;2022-08-21T13:28:33;31.20;41.00
1468;DHT22;727;48.892;9.544;2022-08-21T13:31:07;30.90;41.00
1468;DHT22;727;48.892;9.544;2022-08-21T13:33:35;30.80;41.10
1468;DHT22;727;48.892;9.544;2022-08-21T13:36:06;30.60;41.10
1468;DHT22;727;48.892;9.544;2022-08-21T13:38:35;30.50;40.60
1468;DHT22;727;48.892;9.544;2022-08-21T13:41:08;30.40;40.80
1468;DHT22;727;48.892;9.544;2022-08-21T13:43:37;30.40;40.80
1468;DHT22;727;48.892;9.544;2022-08-21T13:46:09;30.30;41.00
1468;DHT22;727;48.892;9.544;2022-08-21T13:48:37;30.40;40.40
1468;DHT22;727;48.892;9.544;2022-08-21T13:51:04;30.20;40.70
1468;DHT22;727;48.892;9.544;2022-08-21T13:53:35;30.20;40.50
1468;DHT22;727;48.892;9.544;2022-08-21T13:56:04;30.10;40.00
1468;DHT22;727;48.892;9.544;2022-08-21T13:58:33;30.30;40.00
1468;DHT22;727;48.892;9.544;2022-08-21T14:01:18;30.40;39.80
1468;DHT22;727;48.892;9.544;2022-08-21T14:03:48;30.50;39.70
1468;DHT22;727;48.892;9.544;2022-08-21T14:06:17;30.50;40.70
1468;DHT22;727;48.892;9.544;2022-08-21T14:08:49;30.50;40.80
1468;DHT22;727;48.892;9.544;2022-08-21T14:11:17;30.60;40.80
1468;DHT22;727;48.892;9.544;2022-08-21T14:13:46;30.60;41.30
1468;DHT22;727;48.892;9.544;2022-08-21T14:16:18;30.50;41.50
1468;DHT22;727;48.892;9.544;2022-08-21T14:18:48;30.30;42.60
1468;DHT22;727;48.892;9.544;2022-08-21T14:21:24;30.10;42.90
1468;DHT22;727;48.892;9.544;2022-08-21T14:24:02;29.80;43.70
1468;DHT22;727;48.892;9.544;2022-08-21T14:26:30;29.50;41.40
1468;DHT22;727;48.892;9.544;2022-08-21T14:28:59;29.20;42.90
1468;DHT22;727;48.892;9.544;2022-08-21T14:31:30;29.20;41.30
1468;DHT22;727;48.892;9.544;2022-08-21T14:33:58;29.40;40.80
1468;DHT22;727;48.892;9.544;2022-08-21T14:36:25;29.20;41.70
1468;DHT22;727;48.892;9.544;2022-08-21T14:38:52;29.20;42.50
1468;DHT22;727;48.892;9.544;2022-08-21T14:41:21;29.50;40.80
1468;DHT22;727;48.892;9.544;2022-08-21T14:43:50;29.70;40.10
1468;DHT22;727;48.892;9.544;2022-08-21T14:46:22;29.90;40.30
1468;DHT22;727;48.892;9.544;2022-08-21T14:48:49;30.00;40.40
1468;DHT22;727;48.892;9.544;2022-08-21T14:51:17;30.10;40.30
1468;DHT22;727;48.892;9.544;2022-08-21T14:53:43;30.10;37.10
1468;DHT22;727;48.892;9.544;2022-08-21T14:56:11;30.10;38.10
1468;DHT22;727;48.892;9.544;2022-08-21T14:58:41;30.00;37.80
1468;DHT22;727;48.892;9.544;2022-08-21T15:01:11;30.10;37.60
1468;DHT22;727;48.892;9.544;2022-08-21T15:03:39;30.20;37.70
1468;DHT22;727;48.892;9.544;2022-08-21T15:06:07;30.40;38.50
1468;DHT22;727;48.892;9.544;2022-08-21T15:08:34;30.40;37.30
1468;DHT22;727;48.892;9.544;2022-08-21T15:11:02;30.20;38.80
1468;DHT22;727;48.892;9.544;2022-08-21T15:13:30;30.10;38.20
1468;DHT22;727;48.892;9.544;2022-08-21T15:15:57;30.10;38.90
1468;DHT22;727;48.892;9.544;2022-08-21T15:18:26;29.80;37.60
1468;DHT22;727;48.892;9.544;2022-08-21T15:20:53;29.90;39.30
1468;DHT22;727;48.892;9.544;2022-08-21T15:23:20;29.70;39.30
1468;DHT22;727;48.892;9.544;2022-08-21T15:25:48;29.80;38.50
1468;DHT22;727;48.892;9.544;2022-08-21T15:28:16;29.90;39.60
1468;DHT22;727;48.892;9.544;2022-08-21T15:30:44;30.10;39.10
1468;DHT22;727;48.892;9.544;2022-08-21T15:33:11;30.10;38.80
1468;DHT22;727;48.892;9.544;2022-08-21T15:35:39;30.10;38.80
1468;DHT22;727;48.892;9.544;2022-08-21T15:38:06;29.80;39.10
1468;DHT22;727;48.892;9.544;2022-08-21T15:40:34;29.60;40.20
1468;DHT22;727;48.892;9.544;2022-08-21T15:43:02;29.40;40.30
1468;DHT22;727;48.892;9.544;2022-08-21T15:45:30;29.20;39.60
1468;DHT22;727;48.892;9.544;2022-08-21T15:47:57;29.20;41.50
1468;DHT22;727;48.892;9.544;2022-08-21T15:50:25;29.00;41.40
1468;DHT22;727;48.892;9.544;2022-08-21T15:52:53;29.10;42.10
1468;DHT22;727;48.892;9.544;2022-08-21T15:55:20;28.80;41.20
1468;DHT22;727;48.892;9.544;2022-08-21T15:57:49;28.80;40.90
1468;DHT22;727;48.892;9.544;2022-08-21T16:00:20;28.90;40.80
1468;DHT22;727;48.892;9.544;2022-08-21T16:02:50;28.90;41.20
1468;DHT22;727;48.892;9.544;2022-08-21T16:05:18;28.90;42.00
1468;DHT22;727;48.892;9.544;2022-08-21T16:07:47;28.80;42.40
1468;DHT22;727;48.892;9.544;2022-08-21T16:10:18;28.90;41.40
1468;DHT22;727;48.892;9.544;2022-08-21T16:12:50;28.90;41.40
1468;DHT22;727;48.892;9.544;2022-08-21T16:15:18;28.80;41.50
1468;DHT22;727;48.892;9.544;2022-08-21T16:17:46;28.60;42.80
1468;DHT22;727;48.892;9.544;2022-08-21T16:20:16;28.40;43.60
1468;DHT22;727;48.892;9.544;2022-08-21T16:22:44;28.30;44.60
1468;DHT22;727;48.892;9.544;2022-08-21T16:25:12;28.20;42.90
1468;DHT22;727;48.892;9.544;2022-08-21T16:27:41;28.10;44.50
1468;DHT22;727;48.892;9.544;2022-08-21T16:30:11;28.00;44.60
1468;DHT22;727;48.892;9.544;2022-08-21T16:32:39;27.90;44.10
1468;DHT22;727;48.892;9.544;2022-08-21T16:35:07;27.60;46.80